Time;durP1;ratioP1;P1;durP2;ratioP2;P2;SDS_P1;SDS_P2;PMS_P1;PMS_P2;Temp;Humidity;BMP_temperature;BMP_pressure;BME280_temperature;BME280_humidity;BME280_pressure;Samples;Min_cycle;Max_cycle;Signal;HPM_P1;HPM_P2
2024/02/18 00:00:09;;;;;;;25.02;14.23;;;;;;;8.11;100.00;101285.22;6296123;28;20048;-74
2024/02/18 00:03:10;;;;;;;29.27;14.68;;;;;;;8.10;100.00;101283.53;6295953;28;20445;-75
2024/02/18 00:06:11;;;;;;;25.00;13.95;;;;;;;8.10;100.00;101285.28;6297039;28;20045;-72
2024/02/18 00:09:12;;;;;;;29.17;15.35;;;;;;;8.07;100.00;101278.41;6297330;28;20053;-75
2024/02/18 00:12:13;;;;;;;25.85;13.40;;;;;;;8.01;100.00;101276.88;6297051;28;20067;-75
2024/02/18 00:15:14;;;;;;;25.92;14.05;;;;;;;8.04;100.00;101281.13;6296868;28;20159;-75
2024/02/18 00:18:15;;;;;;;28.52;13.77;;;;;;;8.06;100.00;101284.53;6296854;28;20060;-75
2024/02/18 00:21:20;;;;;;;28.73;14.30;;;;;;;8.08;100.00;101283.56;6295700;28;20082;-75
2024/02/18 00:24:20;;;;;;;29.77;13.95;;;;;;;8.02;100.00;101283.75;6295369;28;20449;-75
2024/02/18 00:27:21;;;;;;;31.58;14.55;;;;;;;8.06;100.00;101287.13;6295689;28;20048;-75
2024/02/18 00:30:24;;;;;;;32.25;16.02;;;;;;;8.04;100.00;101287.16;6295191;28;20099;-70
2024/02/18 00:33:25;;;;;;;33.08;15.73;;;;;;;8.03;100.00;101292.38;6296368;28;20483;-71
2024/02/18 00:36:27;;;;;;;27.05;14.90;;;;;;;8.05;100.00;101290.59;6296454;28;20097;-76
2024/02/18 00:39:28;;;;;;;25.37;14.80;;;;;;;8.03;100.00;101290.66;6295129;28;20559;-72
2024/02/18 00:42:29;;;;;;;29.20;15.98;;;;;;;8.06;100.00;101285.34;6295055;28;20052;-71
2024/02/18 00:45:32;;;;;;;27.52;16.23;;;;;;;8.07;100.00;101287.06;6295030;28;20496;-70
2024/02/18 00:48:33;;;;;;;28.80;15.50;;;;;;;8.08;100.00;101291.38;6296621;28;20048;-75
2024/02/18 00:51:34;;;;;;;30.92;16.25;;;;;;;8.05;100.00;101294.06;6294918;28;20079;-75
2024/02/18 00:54:35;;;;;;;29.17;15.43;;;;;;;8.02;100.00;101293.31;6294524;28;20052;-75
2024/02/18 00:57:35;;;;;;;29.15;15.85;;;;;;;7.93;100.00;101286.66;6296086;28;20064;-71
2024/02/18 01:00:40;;;;;;;29.70;15.40;;;;;;;7.98;100.00;101283.91;6296182;28;20052;-75
2024/02/18 01:03:41;;;;;;;23.05;13.77;;;;;;;7.97;100.00;101290.84;6296071;28;20230;-71
2024/02/18 01:06:42;;;;;;;27.55;14.80;;;;;;;7.92;100.00;101291.88;6294557;28;20048;-71
2024/02/18 01:09:43;;;;;;;25.98;14.23;;;;;;;7.85;100.00;101297.25;6295935;28;20064;-71
2024/02/18 01:12:44;;;;;;;25.52;15.27;;;;;;;7.81;100.00;101300.00;6295794;28;20076;-75
2024/02/18 01:15:49;;;;;;;31.20;16.95;;;;;;;7.86;100.00;101303.31;6294506;28;20053;-75
2024/02/18 01:18:52;;;;;;;27.02;15.85;;;;;;;7.85;100.00;101307.66;6295714;28;20059;-75
2024/02/18 01:21:55;;;;;;;26.63;14.73;;;;;;;7.86;100.00;101303.31;6294491;28;20052;-75
2024/02/18 01:24:58;;;;;;;27.95;14.73;;;;;;;7.86;100.00;101303.31;6295597;28;20083;-75
2024/02/18 01:27:58;;;;;;;31.27;16.95;;;;;;;7.87;100.00;101299.81;6294319;28;20131;-75
2024/02/18 01:31:00;;;;;;;28.10;16.00;;;;;;;7.90;100.00;101306.66;6294152;28;20758;-75
2024/02/18 01:34:01;;;;;;;27.45;15.20;;;;;;;7.90;100.00;101307.50;6295707;28;20044;-75
2024/02/18 01:37:02;;;;;;;27.58;14.30;;;;;;;7.90;100.00;101301.47;6295577;28;20083;-71
2024/02/18 01:40:03;;;;;;;38.78;15.30;;;;;;;7.91;100.00;101297.97;6294216;28;20056;-75
2024/02/18 01:43:06;;;;;;;26.73;15.38;;;;;;;7.92;100.00;101302.28;6295594;28;20044;-75
2024/02/18 01:46:08;;;;;;;32.53;16.20;;;;;;;7.75;100.00;101316.63;6294419;28;20052;-75
2024/02/18 01:49:10;;;;;;;29.38;16.75;;;;;;;7.80;100.00;101317.34;6295501;28;20127;-72
2024/02/18 01:52:12;;;;;;;27.63;15.10;;;;;;;7.85;100.00;101319.81;6294222;28;20060;-71
2024/02/18 01:55:17;;;;;;;31.45;16.70;;;;;;;7.83;100.00;101319.00;6294079;28;20066;-72
2024/02/18 01:58:18;;;;;;;27.95;15.93;;;;;;;7.84;100.00;101320.69;6295098;28;20068;-71
2024/02/18 02:01:19;;;;;;;26.55;15.77;;;;;;;7.86;100.00;101311.97;6295240;28;20528;-75
2024/02/18 02:04:20;;;;;;;25.80;16.27;;;;;;;7.84;100.00;101310.28;6294149;28;20045;-75
2024/02/18 02:07:22;;;;;;;25.05;15.07;;;;;;;7.83;100.00;101322.44;6295577;28;20060;-75
2024/02/18 02:10:23;;;;;;;34.30;16.65;;;;;;;7.70;100.00;101318.50;6298979;28;20399;-75
2024/02/18 02:13:26;;;;;;;29.48;17.48;;;;;;;7.81;100.00;101321.63;6299778;28;20084;-74
2024/02/18 02:16:27;;;;;;;31.25;16.17;;;;;;;7.79;100.00;101322.59;6298707;28;20048;-71
2024/02/18 02:19:28;;;;;;;27.40;15.18;;;;;;;7.83;100.00;101326.81;6298497;28;20051;-75
2024/02/18 02:22:29;;;;;;;26.83;17.00;;;;;;;7.83;100.00;101322.44;6298580;28;20053;-75
2024/02/18 02:25:30;;;;;;;29.55;16.10;;;;;;;7.81;100.00;101323.41;6298303;28;20402;-75
2024/02/18 02:28:44;;;;;;;30.73;15.85;;;;;;;7.73;100.00;101318.41;6299385;28;20048;-75
2024/02/18 02:31:46;;;;;;;28.30;15.63;;;;;;;7.73;100.00;101315.81;6299426;28;20049;-75
2024/02/18 02:34:49;;;;;;;26.83;16.50;;;;;;;7.78;100.00;101321.75;6298302;28;20418;-70
2024/02/18 02:37:50;;;;;;;33.00;17.65;;;;;;;7.78;100.00;101320.88;6299150;28;20052;-75
2024/02/18 02:40:51;;;;;;;29.42;17.02;;;;;;;7.81;100.00;101328.59;6299432;28;20434;-75
2024/02/18 02:43:51;;;;;;;32.53;16.67;;;;;;;7.69;100.00;101332.38;6297917;28;20052;-75
2024/02/18 02:46:54;;;;;;;32.17;18.48;;;;;;;7.70;100.00;101330.63;6299000;28;20510;-75
2024/02/18 02:49:55;;;;;;;35.08;18.20;;;;;;;7.59;100.00;101344.78;6299070;28;20056;-75
2024/02/18 02:52:56;;;;;;;32.47;16.80;;;;;;;7.60;100.00;101343.91;6297672;28;20051;-71
2024/02/18 02:55:57;;;;;;;37.05;18.52;;;;;;;7.61;100.00;101347.34;6297786;28;20055;-71
2024/02/18 02:59:00;;;;;;;32.50;17.42;;;;;;;7.56;100.00;101339.69;6298639;28;20048;-75
2024/02/18 03:02:01;;;;;;;33.67;18.17;;;;;;;7.59;100.00;101333.53;6298714;28;20575;-71
2024/02/18 03:05:06;;;;;;;31.60;17.60;;;;;;;7.43;100.00;101352.16;6298573;28;20059;-70
2024/02/18 03:08:08;;;;;;;34.83;18.80;;;;;;;7.22;100.00;101360.50;6298590;28;20445;-70
2024/02/18 03:11:09;;;;;;;34.72;18.67;;;;;;;7.34;100.00;101359.34;6298547;28;20053;-71
2024/02/18 03:14:10;;;;;;;35.33;18.27;;;;;;;7.42;100.00;101359.97;6297393;28;20083;-75
2024/02/18 03:17:11;;;;;;;33.58;18.15;;;;;;;7.46;100.00;101370.25;6298383;28;20139;-75
2024/02/18 03:20:12;;;;;;;30.77;18.10;;;;;;;7.30;100.00;101371.53;6298077;28;20045;-75
2024/02/18 03:23:12;;;;;;;39.60;19.38;;;;;;;7.39;100.00;101384.28;6298189;28;20058;-71
2024/02/18 03:26:13;;;;;;;34.08;18.17;;;;;;;7.27;100.00;101387.22;6298144;28;20056;-71
2024/02/18 03:29:14;;;;;;;36.15;19.17;;;;;;;7.22;100.00;101404.63;6296682;28;20096;-71
2024/02/18 03:32:15;;;;;;;34.22;19.40;;;;;;;7.23;100.00;101399.41;6296885;28;20483;-71
2024/02/18 03:35:15;;;;;;;36.85;19.25;;;;;;;7.33;100.00;101407.81;6296873;28;20450;-71
2024/02/18 03:38:16;;;;;;;36.00;18.70;;;;;;;7.46;100.00;101419.59;6298090;28;20059;-72
2024/02/18 03:41:17;;;;;;;36.70;19.08;;;;;;;7.47;100.00;101415.22;6296816;28;20418;-72
2024/02/18 03:44:20;;;;;;;36.38;19.50;;;;;;;7.35;100.00;101421.63;6296517;28;20040;-71
2024/02/18 03:47:23;;;;;;;40.22;21.08;;;;;;;7.36;100.00;101428.50;6297552;28;20105;-71
2024/02/18 03:50:23;;;;;;;;;;;;;;;7.39;100.00;101432.75;6298114;28;20049;-71
2024/02/18 03:53:25;;;;;;;29.38;17.67;;;;;;;7.47;100.00;101434.28;6297520;28;20019;-72
2024/02/18 03:56:25;;;;;;;34.13;18.10;;;;;;;7.37;100.00;101438.03;6297424;28;20098;-70
2024/02/18 03:59:26;;;;;;;25.65;16.23;;;;;;;7.41;100.00;101438.78;6297218;28;20048;-71
2024/02/18 04:02:29;;;;;;;33.88;16.10;;;;;;;7.40;100.00;101431.88;6297484;28;20052;-75
2024/02/18 04:05:30;;;;;;;29.20;14.93;;;;;;;7.37;100.00;101422.44;6297157;28;20487;-75
2024/02/18 04:08:30;;;;;;;22.60;12.95;;;;;;;7.27;100.00;101415.78;6297034;28;20052;-75
2024/02/18 04:11:31;;;;;;;27.05;13.90;;;;;;;7.44;100.00;101420.53;6297168;28;20479;-75
2024/02/18 04:14:32;;;;;;;16.60;10.30;;;;;;;7.41;100.00;101418.88;6297177;28;20127;-75
2024/02/18 04:17:33;;;;;;;16.88;10.07;;;;;;;7.57;100.00;101428.84;6297009;28;20083;-75
2024/02/18 04:20:33;;;;;;;18.75;9.95;;;;;;;7.61;100.00;101417.47;6295756;28;20067;-71
2024/02/18 04:23:36;;;;;;;15.32;8.70;;;;;;;7.78;100.00;101412.69;6295762;28;20052;-71
2024/02/18 04:26:37;;;;;;;13.65;8.27;;;;;;;7.66;100.00;101413.88;6296669;28;20045;-71
2024/02/18 04:29:39;;;;;;;18.20;8.95;;;;;;;7.82;100.00;101416.03;6294581;28;20410;-75
2024/02/18 04:32:42;;;;;;;18.00;8.90;;;;;;;7.82;100.00;101413.44;6296533;28;20059;-71
2024/02/18 04:35:43;;;;;;;11.68;7.03;;;;;;;7.75;100.00;101404.97;6296565;28;20044;-71
2024/02/18 04:38:47;;;;;;;11.05;6.72;;;;;;;7.73;100.00;101404.16;6295052;28;20052;-71
2024/02/18 04:41:48;;;;;;;11.48;6.00;;;;;;;7.74;100.00;101405.88;6295342;28;20048;-71
2024/02/18 04:44:48;;;;;;;11.15;6.40;;;;;;;7.95;100.00;101407.00;6296394;28;20402;-72
2024/02/18 04:47:49;;;;;;;9.63;6.18;;;;;;;7.85;100.00;101408.16;6295045;28;20056;-71
2024/02/18 04:50:50;;;;;;;8.77;5.63;;;;;;;7.87;100.00;101394.22;6296182;28;20056;-71
2024/02/18 04:53:51;;;;;;;9.55;5.20;;;;;;;7.76;100.00;101398.00;6294824;28;20441;-75
2024/02/18 04:56:52;;;;;;;12.80;6.40;;;;;;;7.94;100.00;101392.28;6296353;28;20130;-75
2024/02/18 04:59:52;;;;;;;11.27;5.00;;;;;;;7.61;100.00;101388.91;6294804;28;20045;-75
2024/02/18 05:02:53;;;;;;;9.98;5.78;;;;;;;7.77;100.00;101400.56;6294979;28;20415;-75
2024/02/18 05:05:54;;;;;;;9.77;5.50;;;;;;;7.75;100.00;101385.94;6294702;28;20093;-75
2024/02/18 05:08:57;;;;;;;6.93;4.28;;;;;;;7.57;100.00;101387.28;6295813;28;20661;-75
2024/02/18 05:11:58;;;;;;;7.88;5.07;;;;;;;7.60;100.00;101380.25;6295838;28;20052;-70
2024/02/18 05:14:59;;;;;;;6.45;4.03;;;;;;;7.47;100.00;101379.75;6294715;28;20045;-71
2024/02/18 05:18:00;;;;;;;7.57;4.32;;;;;;;7.51;100.00;101395.22;6295645;28;20049;-70
2024/02/18 05:21:05;;;;;;;7.68;4.90;;;;;;;7.31;100.00;101396.63;6295546;28;20052;-70
2024/02/18 05:24:10;;;;;;;8.32;4.53;;;;;;;7.35;100.00;101397.38;6294596;28;20570;-70
2024/02/18 05:27:10;;;;;;;9.85;4.53;;;;;;;7.25;100.00;101382.06;6294406;28;20052;-70
2024/02/18 05:30:14;;;;;;;7.25;3.83;;;;;;;7.12;100.00;101378.06;6295546;28;20144;-70
2024/02/18 05:33:14;;;;;;;4.75;3.33;;;;;;;7.15;99.31;101377.16;6294419;28;20060;-70
2024/02/18 05:36:15;;;;;;;6.97;4.05;;;;;;;7.04;99.75;101387.78;6295642;28;20052;-71
2024/02/18 05:39:16;;;;;;;6.50;3.13;;;;;;;7.18;97.95;101392.63;6294256;28;20044;-70
2024/02/18 05:42:17;;;;;;;6.10;3.60;;;;;;;7.32;97.41;101405.25;6297237;28;20044;-70
2024/02/18 05:45:21;;;;;;;6.18;4.00;;;;;;;7.26;97.30;101411.47;6300600;28;20135;-70
2024/02/18 05:48:22;;;;;;;7.60;3.75;;;;;;;7.22;96.25;101423.66;6300695;28;20152;-70
2024/02/18 05:51:22;;;;;;;4.97;3.28;;;;;;;7.43;95.81;101429.19;6300541;28;20721;-70
2024/02/18 05:54:23;;;;;;;8.65;3.22;;;;;;;7.14;96.59;101427.34;6299025;28;20044;-70
2024/02/18 05:57:26;;;;;;;4.38;2.92;;;;;;;7.33;95.45;101435.50;6299026;28;20045;-72
2024/02/18 06:00:27;;;;;;;4.97;3.45;;;;;;;7.25;96.24;101440.94;6298897;28;20510;-75
2024/02/18 06:03:29;;;;;;;4.13;2.85;;;;;;;7.16;96.25;101443.72;6300338;28;20087;-71
2024/02/18 06:06:30;;;;;;;6.80;3.88;;;;;;;7.21;97.01;101444.47;6300028;28;20056;-70
2024/02/18 06:09:33;;;;;;;5.75;3.47;;;;;;;7.28;96.10;101445.19;6298882;28;20095;-72
2024/02/18 06:12:34;;;;;;;6.50;3.30;;;;;;;7.29;95.77;101455.53;6299930;28;20066;-71
2024/02/18 06:15:35;;;;;;;5.97;3.42;;;;;;;7.17;96.83;101454.09;6298788;28;20048;-71
2024/02/18 06:18:35;;;;;;;4.60;3.00;;;;;;;7.06;98.13;101463.84;6299792;28;20109;-70
2024/02/18 06:21:36;;;;;;;5.60;3.28;;;;;;;6.94;99.03;101466.75;6299581;28;20495;-71
2024/02/18 06:24:37;;;;;;;6.32;3.35;;;;;;;7.02;99.05;101470.00;6298526;28;20131;-75
2024/02/18 06:27:38;;;;;;;4.38;3.28;;;;;;;7.14;99.08;101480.09;6299422;28;20127;-70
2024/02/18 06:30:39;;;;;;;5.15;3.25;;;;;;;7.04;99.33;101481.22;6298014;28;20060;-70
2024/02/18 06:33:44;;;;;;;4.72;3.05;;;;;;;7.32;98.79;101488.34;6299303;28;20056;-70
2024/02/18 06:36:45;;;;;;;4.95;3.17;;;;;;;7.33;98.03;101477.94;6298270;28;20044;-70
2024/02/18 06:39:46;;;;;;;4.20;3.03;;;;;;;7.58;96.77;101480.75;6297983;28;20105;-71
2024/02/18 06:42:47;;;;;;;5.13;3.10;;;;;;;7.69;96.81;101487.41;6299370;28;20402;-71
2024/02/18 06:45:47;;;;;;;4.55;3.10;;;;;;;7.66;96.53;101484.00;6299099;28;20080;-71
2024/02/18 06:48:51;;;;;;;5.55;3.50;;;;;;;7.82;96.15;101484.47;6297787;28;20052;-71
2024/02/18 06:51:52;;;;;;;3.92;2.65;;;;;;;7.58;96.51;101480.75;6298824;28;20097;-70
2024/02/18 06:54:53;;;;;;;4.63;3.15;;;;;;;7.63;96.32;101491.03;6298203;28;20445;-71
2024/02/18 06:57:53;;;;;;;3.53;2.60;;;;;;;7.75;95.89;101485.50;6298985;28;20075;-70
2024/02/18 07:00:54;;;;;;;4.85;3.38;;;;;;;7.74;95.97;101482.94;6298682;28;20049;-75
2024/02/18 07:03:55;;;;;;;5.75;3.03;;;;;;;7.73;95.61;101481.25;6298950;28;20079;-70
2024/02/18 07:06:58;;;;;;;7.13;3.58;;;;;;;7.55;95.64;101478.22;6297458;28;20403;-75
2024/02/18 07:10:02;;;;;;;4.40;2.75;;;;;;;7.53;95.53;101485.19;6298698;28;20048;-75
2024/02/18 07:13:03;;;;;;;3.60;2.88;;;;;;;7.76;94.67;101494.16;6298416;28;20052;-75
2024/02/18 07:16:04;;;;;;;6.00;3.35;;;;;;;7.83;94.06;101495.69;6298613;28;20044;-75
2024/02/18 07:19:07;;;;;;;6.80;2.88;;;;;;;7.90;92.64;101486.84;6298263;28;20060;-75
2024/02/18 07:22:08;;;;;;;3.65;2.50;;;;;;;7.97;91.11;101491.00;6296913;28;20074;-75
2024/02/18 07:25:09;;;;;;;4.07;2.80;;;;;;;8.14;88.54;101500.06;6298162;28;20048;-76
2024/02/18 07:28:10;;;;;;;7.20;2.37;;;;;;;8.09;87.11;101489.78;6296939;28;20080;-75
2024/02/18 07:31:11;;;;;;;2.83;2.13;;;;;;;8.31;85.73;101490.03;6296605;28;20052;-75
2024/02/18 07:34:12;;;;;;;4.50;2.85;;;;;;;8.34;84.77;101487.38;6296784;28;20545;-75
2024/02/18 07:37:13;;;;;;;5.80;3.55;;;;;;;8.52;82.99;101491.19;6296726;28;20407;-75
2024/02/18 07:40:15;;;;;;;3.95;2.70;;;;;;;8.44;81.49;101493.16;6297929;28;20057;-75
2024/02/18 07:43:16;;;;;;;5.23;2.87;;;;;;;8.71;79.73;101488.03;6297744;28;20537;-75
2024/02/18 07:46:17;;;;;;;3.58;2.63;;;;;;;8.56;80.54;101474.59;6297643;28;20058;-70
2024/02/18 07:49:20;;;;;;;4.15;2.47;;;;;;;8.76;79.23;101481.78;6297630;28;20513;-70
2024/02/18 07:52:23;;;;;;;8.98;3.83;;;;;;;8.80;78.25;101469.56;6296300;28;20486;-70
2024/02/18 07:55:25;;;;;;;5.05;2.33;;;;;;;8.72;77.14;101474.13;6297401;28;20048;-70
2024/02/18 07:58:26;;;;;;;5.13;2.43;;;;;;;8.68;76.33;101471.63;6297586;28;20056;-70
2024/02/18 08:01:27;;;;;;;7.22;2.50;;;;;;;8.91;74.90;101475.25;6296102;28;20125;-75
2024/02/18 08:04:27;;;;;;;2.70;1.83;;;;;;;9.04;74.29;101478.34;6296466;28;20157;-70
2024/02/18 08:07:28;;;;;;;3.28;2.03;;;;;;;9.02;74.00;101490.56;6297107;28;20053;-70
2024/02/18 08:10:29;;;;;;;2.75;2.28;;;;;;;8.88;73.83;101491.84;6297299;28;20403;-70
2024/02/18 08:13:30;;;;;;;3.00;2.28;;;;;;;9.05;74.47;101483.47;6296906;28;20053;-70
2024/02/18 08:16:31;;;;;;;3.20;2.33;;;;;;;9.26;73.60;101484.53;6295869;28;20049;-70
2024/02/18 08:19:32;;;;;;;4.38;2.20;;;;;;;9.31;72.51;101489.63;6295737;28;20522;-70
2024/02/18 08:22:33;;;;;;;3.13;2.10;;;;;;;9.51;71.85;101493.31;6296862;28;20084;-70
2024/02/18 08:25:34;;;;;;;8.07;4.07;;;;;;;9.22;71.56;101492.50;6296849;28;20072;-75
2024/02/18 08:28:34;;;;;;;11.68;4.43;;;;;;;8.96;71.29;101502.00;6296554;28;20114;-75
2024/02/18 08:31:38;;;;;;;5.75;2.70;;;;;;;8.81;72.33;101507.69;6296488;28;20071;-75
2024/02/18 08:34:44;;;;;;;5.32;2.47;;;;;;;9.13;70.38;101503.22;6295245;28;20045;-75
2024/02/18 08:37:48;;;;;;;4.75;2.50;;;;;;;9.44;68.38;101506.53;6296422;28;20044;-75
2024/02/18 08:40:49;;;;;;;4.20;2.00;;;;;;;9.76;68.66;101504.63;6295152;28;20059;-75
2024/02/18 08:43:52;;;;;;;3.58;2.13;;;;;;;9.81;67.64;101512.25;6296411;28;20049;-76
2024/02/18 08:46:53;;;;;;;2.70;1.95;;;;;;;9.96;65.74;101503.06;6296319;28;20060;-75
2024/02/18 08:49:53;;;;;;;4.22;2.25;;;;;;;10.10;66.61;101506.03;6296367;28;20095;-75
2024/02/18 08:52:54;;;;;;;3.40;2.30;;;;;;;9.59;66.29;101507.75;6295047;28;20109;-76
2024/02/18 08:55:55;;;;;;;2.88;2.00;;;;;;;9.25;66.51;101515.88;6295992;28;20052;-76
2024/02/18 08:58:56;;;;;;;3.38;2.20;;;;;;;9.04;67.70;101523.47;6296184;28;20113;-70
2024/02/18 09:02:00;;;;;;;2.83;1.90;;;;;;;8.90;67.77;101535.19;6294681;28;20651;-69
2024/02/18 09:05:01;;;;;;;4.22;2.25;;;;;;;9.12;68.70;101523.22;6295064;28;20052;-70
2024/02/18 09:08:04;;;;;;;7.18;2.15;;;;;;;9.33;69.60;101520.81;6295952;28;20554;-70
2024/02/18 09:11:05;;;;;;;7.80;4.22;;;;;;;9.32;68.35;101538.19;6296007;28;20090;-71
2024/02/18 09:14:06;;;;;;;3.83;1.83;;;;;;;9.07;68.53;101531.16;6295663;28;20079;-70
2024/02/18 09:17:06;;;;;;;3.58;2.30;;;;;;;9.12;67.94;101523.22;6295793;28;20402;-71
2024/02/18 09:20:08;;;;;;;4.15;2.53;;;;;;;9.22;67.37;101529.81;6294550;28;20049;-70
2024/02/18 09:23:08;;;;;;;6.78;3.58;;;;;;;9.34;68.45;101535.53;6295866;28;20053;-70
2024/02/18 09:26:10;;;;;;;5.65;3.85;;;;;;;9.31;67.08;101533.91;6294627;28;20071;-70
2024/02/18 09:29:11;;;;;;;6.77;2.40;;;;;;;9.03;65.54;101542.56;6295389;28;20506;-70
2024/02/18 09:32:11;;;;;;;4.45;2.38;;;;;;;9.31;65.35;101538.22;6295465;28;20049;-70
2024/02/18 09:35:15;;;;;;;3.05;2.30;;;;;;;9.42;64.72;101543.97;6294264;28;20041;-70
2024/02/18 09:38:15;;;;;;;5.82;2.80;;;;;;;9.38;65.67;101538.00;6294485;28;20090;-70
2024/02/18 09:41:17;;;;;;;3.90;2.60;;;;;;;9.36;65.19;101542.41;6294231;28;20056;-70
2024/02/18 09:44:22;;;;;;;6.85;3.20;;;;;;;9.32;65.12;101534.75;6295568;28;20055;-70
2024/02/18 09:47:24;;;;;;;4.13;2.95;;;;;;;9.45;65.45;101533.44;6295490;28;20434;-70
2024/02/18 09:50:27;;;;;;;6.18;2.38;;;;;;;9.77;64.75;101537.59;6294189;28;20075;-70
2024/02/18 09:53:29;;;;;;;4.80;2.60;;;;;;;9.66;63.91;101529.28;6295320;28;20049;-70
2024/02/18 09:56:30;;;;;;;5.22;2.50;;;;;;;9.63;64.47;101526.78;6294341;28;20127;-70
2024/02/18 09:59:32;;;;;;;5.60;3.42;;;;;;;9.74;63.52;101532.47;6295323;28;20056;-75
2024/02/18 10:02:34;;;;;;;3.33;2.37;;;;;;;9.57;63.53;101530.41;6293987;28;20053;-75
2024/02/18 10:05:35;;;;;;;8.20;3.58;;;;;;;9.62;63.12;101538.94;6295335;28;20560;-71
2024/02/18 10:08:54;;;;;;;4.72;2.75;;;;;;;9.67;63.36;101537.03;6295105;28;20078;-75
2024/02/18 10:11:55;;;;;;;4.25;2.65;;;;;;;9.58;63.00;101532.13;6295205;28;20048;-76
2024/02/18 10:15:03;;;;;;;7.05;3.00;;;;;;;9.95;63.81;101528.28;6294880;28;20059;-75
2024/02/18 10:18:07;;;;;;;4.07;2.92;;;;;;;9.87;62.82;101527.69;6295163;28;20049;-75
2024/02/18 10:21:11;;;;;;;6.82;3.38;;;;;;;9.57;62.89;101534.78;6294890;28;20504;-76
2024/02/18 10:24:12;;;;;;;5.28;2.72;;;;;;;9.74;62.35;101532.47;6295038;28;20131;-76
2024/02/18 10:27:13;;;;;;;3.40;2.35;;;;;;;9.60;62.60;101532.09;6294894;28;20494;-76
2024/02/18 10:30:14;;;;;;;5.85;3.20;;;;;;;9.84;62.05;101535.59;6298034;28;20064;-76
2024/02/18 10:33:14;;;;;;;4.70;3.08;;;;;;;10.02;61.07;101539.34;6299378;28;20063;-76
2024/02/18 10:36:18;;;;;;;4.38;2.80;;;;;;;10.46;60.27;101534.34;6298289;28;20127;-76
2024/02/18 10:39:26;;;;;;;5.38;2.70;;;;;;;10.74;59.45;101535.91;6298084;28;20058;-76
2024/02/18 10:42:28;;;;;;;3.92;2.80;;;;;;;10.44;60.57;101525.72;6299444;28;20059;-75
2024/02/18 10:45:30;;;;;;;4.35;2.75;;;;;;;10.64;59.70;101522.34;6299135;28;20048;-76
2024/02/18 10:48:36;;;;;;;3.47;2.50;;;;;;;10.49;58.45;101526.38;6299393;28;20048;-75
2024/02/18 10:51:39;;;;;;;8.73;2.83;;;;;;;10.54;58.59;101521.81;6297920;28;20048;-75
2024/02/18 10:54:51;;;;;;;7.75;3.00;;;;;;;10.32;57.66;101519.19;6297580;28;20058;-75
2024/02/18 10:57:57;;;;;;;5.30;2.27;;;;;;;10.40;59.52;101517.13;6297996;28;20049;-76
2024/02/18 11:01:03;;;;;;;6.95;3.00;;;;;;;10.58;57.82;101505.13;6298813;28;20483;-75
2024/02/18 11:04:07;;;;;;;4.43;2.50;;;;;;;10.63;57.67;101495.38;6298730;28;20482;-76
2024/02/18 11:07:10;;;;;;;4.65;2.92;;;;;;;11.71;56.83;101488.41;6298688;28;20052;-75
2024/02/18 11:10:11;;;;;;;4.03;2.42;;;;;;;11.22;55.20;101475.66;6297414;28;20132;-76
2024/02/18 11:13:14;;;;;;;5.43;3.00;;;;;;;10.95;55.83;101475.00;6297216;28;20045;-76
2024/02/18 11:16:16;;;;;;;6.80;3.25;;;;;;;11.14;54.99;101471.63;6297456;28;20045;-75
2024/02/18 11:19:18;;;;;;;6.72;3.15;;;;;;;11.68;54.71;101472.88;6298419;28;20376;-75
2024/02/18 11:22:23;;;;;;;3.80;2.70;;;;;;;11.86;54.34;101465.97;6298452;28;20054;-75
2024/02/18 11:25:24;;;;;;;9.07;3.65;;;;;;;12.43;53.76;101451.22;6296895;28;20151;-75
2024/02/18 11:28:28;;;;;;;7.22;4.50;;;;;;;12.49;51.71;101452.69;6297163;28;20491;-75
2024/02/18 11:31:30;;;;;;;7.50;5.18;;;;;;;12.28;51.85;101446.69;6296714;28;20438;-75
2024/02/18 11:34:31;;;;;;;8.63;5.40;;;;;;;12.03;53.39;101460.88;6298182;28;20281;-75
2024/02/18 11:37:33;;;;;;;6.22;3.70;;;;;;;11.45;54.58;101463.41;6298149;28;20452;-76
2024/02/18 11:40:43;;;;;;;;;;;;;;;11.11;53.77;101456.94;6298277;28;20147;-75
2024/02/18 11:43:50;;;;;;;4.72;2.92;;;;;;;10.68;54.61;101449.06;6297754;28;20361;-76
2024/02/18 11:46:52;;;;;;;5.30;3.10;;;;;;;10.62;56.32;101451.91;6298157;28;20041;-75
2024/02/18 11:49:52;;;;;;;6.00;2.97;;;;;;;10.93;55.22;101449.84;6296511;28;20414;-75
2024/02/18 11:52:54;;;;;;;6.82;2.70;;;;;;;11.13;55.23;101447.28;6297542;28;20048;-76
2024/02/18 11:55:55;;;;;;;3.47;2.25;;;;;;;11.17;55.26;101448.00;6297421;28;20588;-75
2024/02/18 11:58:55;;;;;;;3.88;2.38;;;;;;;11.78;53.99;101437.56;6297299;28;20053;-75
2024/02/18 12:01:56;;;;;;;6.75;3.50;;;;;;;12.23;52.81;101431.22;6297315;28;20057;-75
2024/02/18 12:04:57;;;;;;;7.40;3.50;;;;;;;12.57;51.73;101437.47;6296035;28;20044;-75
2024/02/18 12:08:03;;;;;;;3.83;3.00;;;;;;;12.55;52.38;101417.53;6295956;28;20131;-76
2024/02/18 12:11:05;;;;;;;4.05;2.55;;;;;;;12.58;51.34;101414.75;6297164;28;20059;-76
2024/02/18 12:14:08;;;;;;;4.78;2.80;;;;;;;12.56;52.29;101408.75;6296059;28;20052;-75
2024/02/18 12:17:09;;;;;;;3.38;1.98;;;;;;;12.42;51.04;101412.88;6297504;28;20044;-76
2024/02/18 12:20:10;;;;;;;3.90;2.30;;;;;;;12.37;51.81;101411.38;6296731;28;20084;-76
2024/02/18 12:23:13;;;;;;;6.68;2.40;;;;;;;12.20;51.90;101409.56;6296888;28;20060;-76
2024/02/18 12:26:17;;;;;;;9.35;2.50;;;;;;;12.48;52.12;101417.81;6296632;28;20053;-76
2024/02/18 12:29:21;;;;;;;4.47;2.45;;;;;;;12.59;52.19;101414.69;6295417;28;20114;-76
2024/02/18 12:32:22;;;;;;;2.80;2.05;;;;;;;12.51;49.24;101403.72;6295256;28;20503;-76
2024/02/18 12:35:23;;;;;;;3.88;2.63;;;;;;;12.32;50.84;101411.63;6296538;28;20051;-76
2024/02/18 12:38:24;;;;;;;3.67;2.20;;;;;;;12.06;50.80;101404.97;6295259;28;20122;-76
2024/02/18 12:41:24;;;;;;;2.97;2.17;;;;;;;11.74;52.16;101412.47;6295412;28;20483;-76
2024/02/18 12:44:27;;;;;;;14.50;4.45;;;;;;;12.45;51.38;101407.47;6295040;28;20521;-70
2024/02/18 12:47:33;;;;;;;8.05;3.00;;;;;;;11.90;50.62;101404.78;6295131;28;20139;-71
2024/02/18 12:50:34;;;;;;;7.65;3.25;;;;;;;12.03;51.15;101397.25;6295912;28;20052;-70
2024/02/18 12:53:38;;;;;;;6.55;2.72;;;;;;;12.46;49.92;101397.88;6295294;28;20056;-70
2024/02/18 12:56:40;;;;;;;6.57;3.50;;;;;;;12.30;50.30;101395.13;6294730;28;20132;-70
2024/02/18 12:59:41;;;;;;;5.20;2.73;;;;;;;11.82;51.12;101410.38;6295156;28;20048;-70
2024/02/18 13:02:44;;;;;;;8.43;4.30;;;;;;;11.98;51.26;101392.22;6295009;28;20049;-70
2024/02/18 13:05:47;;;;;;;7.30;3.90;;;;;;;11.75;52.66;101398.47;6294897;28;20091;-69
2024/02/18 13:08:48;;;;;;;8.18;2.97;;;;;;;12.28;51.22;101386.50;6296202;28;20052;-70
2024/02/18 13:11:49;;;;;;;9.00;3.67;;;;;;;12.44;52.67;101384.88;6294583;28;20130;-70
2024/02/18 13:14:51;;;;;;;6.57;2.97;;;;;;;12.45;51.80;101390.94;6295667;28;20045;-70
2024/02/18 13:17:51;;;;;;;9.52;3.10;;;;;;;12.63;51.17;101391.84;6295917;28;20052;-75
2024/02/18 13:20:54;;;;;;;13.02;3.42;;;;;;;12.06;50.97;101389.25;6294643;28;20415;-75
2024/02/18 13:23:55;;;;;;;5.90;3.50;;;;;;;12.09;50.33;101383.91;6295749;28;20414;-75
2024/02/18 13:26:57;;;;;;;5.63;2.88;;;;;;;12.23;50.67;101385.84;6294472;28;20048;-75
2024/02/18 13:29:58;;;;;;;7.90;3.00;;;;;;;12.48;49.79;101382.97;6295604;28;20491;-75
2024/02/18 13:32:58;;;;;;;10.05;3.55;;;;;;;12.10;50.50;101380.34;6295490;28;20059;-76
2024/02/18 13:35:59;;;;;;;4.03;2.50;;;;;;;12.36;51.14;101375.69;6294401;28;20083;-75
2024/02/18 13:39:00;;;;;;;4.15;2.35;;;;;;;12.22;49.73;101381.56;6294297;28;20048;-75
2024/02/18 13:42:02;;;;;;;4.88;2.80;;;;;;;11.49;51.78;101379.56;6294361;28;20418;-76
2024/02/18 13:45:03;;;;;;;5.03;2.58;;;;;;;11.80;51.34;101372.97;6295396;28;20045;-75
2024/02/18 13:48:07;;;;;;;7.10;2.70;;;;;;;11.84;50.58;101368.44;6295393;28;20544;-75
2024/02/18 13:51:11;;;;;;;8.32;2.97;;;;;;;12.07;51.24;101378.72;6294206;28;20080;-75
2024/02/18 13:54:13;;;;;;;6.10;2.67;;;;;;;12.01;50.10;101378.19;6295493;28;20105;-76
2024/02/18 13:57:14;;;;;;;11.45;3.45;;;;;;;11.92;50.58;101374.19;6294204;28;20052;-76
2024/02/18 14:00:15;;;;;;;9.10;3.50;;;;;;;12.07;50.74;101377.91;6294069;28;20098;-76
2024/02/18 14:03:15;;;;;;;5.93;2.67;;;;;;;12.07;50.30;101380.50;6295792;28;20056;-76